createdAt,value
2018-02-03T00:02:11.572Z,94.80
2018-02-03T00:04:40.276Z,94.80
2018-02-03T00:07:08.681Z,94.70
2018-02-03T00:09:37.388Z,94.80
2018-02-03T00:12:06.126Z,94.80
2018-02-03T00:14:35.619Z,94.80
2018-02-03T00:17:04.437Z,94.70
2018-02-03T00:19:33.160Z,94.70
2018-02-03T00:22:01.696Z,94.60
2018-02-03T00:24:31.198Z,94.60
2018-02-03T00:27:00.673Z,94.60
2018-02-03T00:29:29.373Z,94.50
2018-02-03T00:31:58.111Z,94.60
2018-02-03T00:34:26.852Z,94.60
2018-02-03T00:36:55.566Z,94.60
2018-02-03T00:39:25.075Z,94.60
2018-02-03T00:41:53.792Z,94.60
2018-02-03T00:44:22.522Z,94.60
2018-02-03T00:46:51.232Z,94.60
2018-02-03T00:49:20.717Z,94.70
2018-02-03T00:51:49.432Z,94.70
2018-02-03T00:54:18.183Z,94.60
2018-02-03T00:56:46.885Z,94.80
2018-02-03T00:59:16.420Z,94.90
2018-02-03T01:01:45.152Z,94.90
2018-02-03T01:04:13.882Z,95.00
2018-02-03T01:06:42.602Z,95.00
2018-02-03T01:09:11.363Z,95.00
2018-02-03T01:11:40.072Z,94.90
2018-02-03T01:14:08.797Z,94.90
2018-02-03T01:16:37.551Z,94.90
2018-02-03T01:19:06.294Z,94.90
2018-02-03T01:21:35.790Z,95.10
2018-02-03T01:24:04.510Z,94.90
2018-02-03T01:26:33.257Z,95.00
2018-02-03T01:29:01.982Z,94.90
2018-02-03T01:31:30.695Z,94.90
2018-02-03T01:33:59.252Z,94.90
2018-02-03T01:36:28.751Z,95.00
2018-02-03T01:38:58.262Z,95.00
2018-02-03T01:41:26.797Z,95.00
2018-02-03T01:43:55.796Z,94.90
2018-02-03T01:46:24.490Z,94.90
2018-02-03T01:48:53.231Z,94.80
2018-02-03T01:51:22.056Z,94.80
2018-02-03T01:53:50.819Z,94.80
2018-02-03T01:56:19.555Z,94.90
2018-02-03T01:58:48.303Z,94.90
2018-02-03T02:01:17.036Z,95.20
2018-02-03T02:03:46.015Z,94.90
2018-02-03T02:06:14.723Z,94.80
2018-02-03T02:08:44.221Z,94.80
2018-02-03T02:11:12.945Z,94.70
2018-02-03T02:13:41.669Z,94.80
2018-02-03T02:16:10.408Z,94.90
2018-02-03T02:18:39.885Z,95.00
2018-02-03T02:21:08.835Z,95.00
2018-02-03T02:23:37.551Z,94.90
2018-02-03T02:26:06.271Z,95.00
2018-02-03T02:28:35.782Z,94.90
2018-02-03T02:31:05.261Z,95.00
2018-02-03T02:33:33.960Z,95.00
2018-02-03T02:36:02.696Z,95.00
2018-02-03T02:38:31.439Z,95.00
2018-02-03T02:41:00.173Z,94.90
2018-02-03T02:43:29.670Z,94.80
2018-02-03T02:45:58.596Z,94.80
2018-02-03T02:48:27.331Z,94.70
2018-02-03T02:50:56.642Z,94.90
2018-02-03T02:53:25.042Z,94.70
2018-02-03T02:55:53.740Z,94.90
2018-02-03T02:58:22.482Z,94.90
2018-02-03T03:00:52.029Z,94.80
2018-02-03T03:03:20.739Z,94.90
2018-02-03T03:05:49.678Z,94.80
2018-02-03T03:08:19.219Z,94.60
2018-02-03T03:10:47.954Z,94.70
2018-02-03T03:13:17.477Z,94.50
2018-02-03T03:15:46.968Z,94.50
2018-02-03T03:18:16.453Z,94.60
2018-02-03T03:20:44.844Z,94.60
2018-02-03T03:23:13.576Z,94.70
2018-02-03T03:25:42.013Z,94.80
2018-02-03T03:28:10.395Z,94.60
2018-02-03T03:30:39.110Z,94.20
2018-02-03T03:33:08.052Z,94.10
2018-02-03T03:35:36.778Z,94.40
2018-02-03T03:38:05.528Z,94.60
2018-02-03T03:40:34.503Z,94.70
2018-02-03T03:43:03.205Z,94.80
2018-02-03T03:45:31.948Z,94.80
2018-02-03T03:48:00.901Z,94.80
2018-02-03T03:50:29.632Z,94.80
2018-02-03T03:52:58.397Z,94.70
2018-02-03T03:55:27.719Z,94.70
2018-02-03T03:57:56.488Z,94.70
2018-02-03T04:00:25.984Z,94.70
2018-02-03T04:02:54.521Z,94.70
2018-02-03T04:05:23.252Z,94.60
2018-02-03T04:07:51.799Z,94.50
2018-02-03T04:10:20.522Z,94.20
2018-02-03T04:12:49.239Z,94.30
2018-02-03T04:15:18.574Z,94.50
2018-02-03T04:17:47.307Z,94.50
2018-02-03T04:20:16.037Z,94.50
2018-02-03T04:22:44.766Z,94.60
2018-02-03T04:25:13.484Z,94.80
2018-02-03T04:27:42.195Z,94.90
2018-02-03T04:30:10.779Z,94.90
2018-02-03T04:32:39.508Z,94.90
2018-02-03T04:35:08.224Z,94.90
2018-02-03T04:37:37.728Z,94.70
2018-02-03T04:40:07.209Z,94.50
2018-02-03T04:42:35.929Z,94.50
2018-02-03T04:45:05.447Z,94.40
2018-02-03T04:47:34.150Z,94.40
2018-02-03T04:50:02.708Z,94.30
2018-02-03T04:52:32.232Z,94.30
2018-02-03T04:55:00.432Z,94.30
2018-02-03T04:57:29.187Z,94.40
2018-02-03T04:59:57.923Z,94.40
2018-02-03T05:02:26.632Z,94.30
2018-02-03T05:04:55.387Z,94.20
2018-02-03T05:07:24.113Z,94.00
2018-02-03T05:09:52.917Z,94.20
2018-02-03T05:12:22.640Z,94.10
2018-02-03T05:14:51.397Z,94.10
2018-02-03T05:17:20.132Z,94.00
2018-02-03T05:19:48.888Z,94.10
2018-02-03T05:22:17.624Z,94.40
2018-02-03T05:24:46.356Z,94.50
2018-02-03T05:27:15.077Z,94.60
2018-02-03T05:29:43.808Z,94.70
2018-02-03T05:32:12.518Z,94.70
2018-02-03T05:34:41.065Z,94.60
2018-02-03T05:37:09.835Z,94.50
2018-02-03T05:39:38.381Z,94.50
2018-02-03T05:42:08.088Z,94.50
2018-02-03T05:44:39.147Z,94.30
2018-02-03T05:47:07.646Z,94.40
2018-02-03T05:49:35.519Z,94.10
2018-02-03T05:52:04.315Z,94.00
2018-02-03T05:54:33.019Z,94.20
2018-02-03T05:57:01.770Z,94.30
2018-02-03T05:59:30.538Z,94.20
2018-02-03T06:01:59.099Z,94.10
2018-02-03T06:04:27.808Z,94.30
2018-02-03T06:06:57.299Z,94.50
2018-02-03T06:09:25.998Z,94.50
2018-02-03T06:11:55.564Z,94.80
2018-02-03T06:14:24.343Z,94.80
2018-02-03T06:16:53.075Z,94.80
2018-02-03T06:19:21.785Z,94.80
2018-02-03T06:21:51.268Z,95.10
2018-02-03T06:24:19.974Z,95.10
2018-02-03T06:26:49.476Z,95.20
2018-02-03T06:29:18.998Z,95.10
2018-02-03T06:31:48.494Z,95.10
2018-02-03T06:34:18.008Z,94.90
2018-02-03T06:36:47.493Z,94.80
2018-02-03T06:39:16.214Z,94.80
2018-02-03T06:41:44.954Z,94.80
2018-02-03T06:44:13.699Z,94.70
2018-02-03T06:46:42.257Z,94.70
2018-02-03T06:49:11.790Z,94.60
2018-02-03T06:51:40.566Z,94.60
2018-02-03T06:54:09.298Z,94.40
2018-02-03T06:56:38.018Z,94.30
2018-02-03T06:59:07.540Z,94.70
2018-02-03T07:01:37.021Z,94.30
2018-02-03T07:04:05.100Z,94.30
2018-02-03T07:06:33.856Z,94.60
2018-02-03T07:09:02.376Z,94.60
2018-02-03T07:11:31.926Z,93.90
2018-02-03T07:14:00.817Z,94.20
2018-02-03T07:16:29.791Z,93.60
2018-02-03T07:18:58.532Z,92.90
2018-02-03T07:21:27.560Z,92.60
2018-02-03T07:23:56.894Z,93.20
2018-02-03T07:26:25.862Z,93.20
2018-02-03T07:28:54.478Z,93.20
2018-02-03T07:31:23.448Z,93.20
2018-02-03T07:33:52.168Z,93.30
2018-02-03T07:36:20.912Z,92.80
2018-02-03T07:38:50.395Z,92.20
2018-02-03T07:41:19.118Z,92.20
2018-02-03T07:43:48.840Z,91.20
2018-02-03T07:46:17.557Z,91.20
2018-02-03T07:48:46.303Z,91.00
2018-02-03T07:51:15.044Z,91.40
2018-02-03T07:53:43.767Z,91.70
2018-02-03T07:56:13.291Z,92.20
2018-02-03T07:58:41.412Z,92.20
2018-02-03T08:01:10.134Z,91.80
2018-02-03T08:03:39.483Z,92.00
2018-02-03T08:06:08.421Z,92.00
2018-02-03T08:08:37.193Z,92.10
2018-02-03T08:52:03.549Z,92.50
2018-02-03T08:54:33.008Z,92.10
2018-02-03T08:57:02.027Z,92.10
2018-02-03T08:59:30.728Z,92.10
2018-02-03T09:01:59.142Z,92.10
2018-02-03T09:04:28.826Z,92.00
2018-02-03T09:06:58.341Z,92.00
2018-02-03T09:09:26.350Z,92.10
2018-02-03T09:12:04.309Z,92.20
2018-02-03T09:14:33.626Z,92.20
2018-02-03T09:17:02.678Z,92.30
2018-02-03T09:19:31.668Z,92.20
2018-02-03T09:22:00.570Z,92.20
2018-02-03T09:24:29.193Z,92.20
2018-02-03T09:27:01.401Z,92.20
2018-02-03T09:33:02.565Z,92.30
2018-02-03T09:39:25.332Z,92.10
2018-02-03T09:51:28.723Z,91.30
2018-02-03T09:53:57.602Z,91.50
2018-02-03T09:56:28.965Z,91.30
2018-02-03T09:58:58.391Z,91.30
2018-02-03T10:01:32.277Z,91.50
2018-02-03T10:04:01.419Z,91.30
2018-02-03T10:09:11.502Z,91.30
2018-02-03T10:11:55.205Z,91.70
2018-02-03T10:14:24.242Z,91.70
2018-02-03T10:16:53.035Z,91.90
2018-02-03T10:19:25.928Z,91.60
2018-02-03T10:21:54.916Z,91.20
2018-02-03T10:30:14.858Z,91.10
2018-02-03T10:32:46.373Z,91.20
2018-02-03T11:10:29.851Z,87.40
2018-02-03T11:18:59.528Z,87.30
2018-02-03T11:21:33.390Z,85.70
2018-02-03T11:24:02.689Z,85.30
2018-02-03T11:26:34.907Z,85.70
2018-02-03T11:29:05.027Z,86.10
2018-02-03T11:31:35.960Z,86.30
2018-02-03T11:34:05.273Z,86.20
2018-02-03T11:36:34.333Z,86.60
2018-02-03T11:39:02.925Z,87.30
2018-02-03T11:41:31.933Z,87.30
2018-02-03T11:44:04.096Z,86.70
2018-02-03T11:46:33.928Z,87.50
2018-02-03T11:49:03.806Z,85.50
2018-02-03T11:51:32.951Z,86.20
2018-02-03T11:54:08.565Z,84.70
2018-02-03T11:56:37.533Z,84.50
2018-02-03T11:59:11.423Z,84.90
2018-02-03T12:01:43.661Z,85.30
2018-02-03T12:04:13.300Z,85.20
2018-02-03T12:06:43.214Z,86.50
2018-02-03T12:09:12.654Z,86.30
2018-02-03T12:11:43.922Z,85.30
2018-02-03T12:14:13.421Z,84.60
2018-02-03T12:16:42.472Z,84.00
2018-02-03T12:19:11.427Z,84.20
2018-02-03T12:21:40.294Z,83.60
2018-02-03T12:27:16.773Z,84.80
2018-02-03T12:29:48.401Z,81.10
2018-02-03T12:32:17.298Z,80.90
2018-02-03T12:37:26.921Z,76.60
2018-02-03T12:39:55.908Z,78.60
2018-02-03T12:42:24.997Z,78.50
2018-02-03T12:44:53.844Z,76.00
2018-02-03T12:47:22.745Z,77.20
2018-02-03T12:49:52.469Z,78.10
2018-02-03T12:52:21.750Z,72.90
2018-02-03T12:54:50.314Z,72.90
2018-02-03T12:57:18.761Z,72.70
2018-02-03T12:59:47.960Z,67.00
2018-02-03T13:02:17.213Z,64.90
2018-02-03T13:04:45.672Z,65.60
2018-02-03T13:07:14.081Z,62.40
2018-02-03T13:09:42.519Z,57.40
2018-02-03T13:12:11.301Z,58.40
2018-02-03T13:14:40.170Z,60.00
2018-02-03T13:17:08.991Z,57.70
2018-02-03T13:19:38.136Z,54.60
2018-02-03T13:22:06.614Z,54.70
2018-02-03T13:24:34.828Z,52.20
2018-02-03T13:27:03.965Z,46.60
2018-02-03T13:29:32.363Z,46.60
2018-02-03T13:32:00.987Z,46.10
2018-02-03T13:34:30.182Z,47.30
2018-02-03T13:36:59.375Z,49.20
2018-02-03T13:39:27.916Z,49.20
2018-02-03T13:41:56.583Z,47.00
2018-02-03T13:44:24.971Z,46.70
2018-02-03T13:46:53.361Z,48.50
2018-02-03T13:49:21.565Z,53.30
2018-02-03T13:51:49.968Z,56.00
2018-02-03T13:54:19.401Z,60.80
2018-02-03T13:56:48.025Z,60.80
2018-02-03T13:59:16.488Z,60.80
2018-02-03T14:01:44.868Z,63.20
2018-02-03T14:04:13.257Z,65.20
2018-02-03T14:06:41.637Z,66.60
2018-02-03T14:09:10.259Z,68.30
2018-02-03T14:11:39.441Z,70.70
2018-02-03T14:14:07.899Z,70.70
2018-02-03T14:16:36.536Z,70.60
2018-02-03T14:19:05.256Z,71.60
2018-02-03T14:21:34.726Z,73.50
2018-02-03T14:24:08.758Z,73.40
2018-02-03T14:26:38.156Z,75.50
2018-02-03T14:29:06.824Z,75.50
2018-02-03T14:31:35.498Z,76.60
2018-02-03T14:34:04.173Z,78.00
2018-02-03T14:36:32.817Z,79.00
2018-02-03T14:39:02.223Z,79.40
2018-02-03T14:41:31.975Z,79.30
2018-02-03T14:44:00.623Z,79.20
2018-02-03T14:46:30.025Z,81.20
2018-02-03T14:48:59.468Z,82.30
2018-02-03T14:51:28.133Z,82.30
2018-02-03T14:53:56.781Z,82.80
2018-02-03T14:56:25.558Z,84.10
2018-02-03T14:58:54.212Z,84.60
2018-02-03T15:01:22.856Z,84.20
2018-02-03T15:03:51.509Z,84.20
2018-02-03T15:06:20.168Z,84.70
2018-02-03T15:08:48.862Z,84.80
2018-02-03T15:11:17.511Z,85.20
2018-02-03T15:13:46.952Z,86.80
2018-02-03T15:16:15.701Z,86.80
2018-02-03T15:18:45.113Z,87.40
2018-02-03T15:21:14.524Z,87.80
2018-02-03T15:23:43.193Z,87.70
2018-02-03T15:26:12.611Z,87.10
2018-02-03T15:28:41.253Z,87.00
2018-02-03T15:31:09.917Z,87.00
2018-02-03T15:33:39.657Z,87.50
2018-02-03T15:36:08.425Z,87.20
2018-02-03T15:38:37.877Z,87.50
2018-02-03T15:41:06.617Z,89.30
2018-02-03T15:43:34.933Z,90.10
2018-02-03T15:46:03.665Z,89.90
2018-02-03T15:48:31.973Z,89.50
2018-02-03T15:51:00.776Z,89.20
2018-02-03T15:54:06.801Z,89.60
2018-02-03T15:56:35.582Z,89.90
2018-02-03T15:59:05.004Z,90.20
2018-02-03T16:01:33.778Z,90.40
2018-02-03T16:04:03.194Z,90.30
2018-02-03T16:06:32.014Z,90.60
2018-02-03T16:09:00.741Z,90.90
2018-02-03T16:11:29.469Z,90.90
2018-02-03T16:13:58.408Z,90.90
2018-02-03T16:16:27.864Z,91.00
2018-02-03T16:18:57.280Z,91.30
2018-02-03T16:21:28.571Z,91.80
2018-02-03T17:15:59.982Z,92.90
2018-02-03T17:18:41.417Z,92.80
2018-02-03T17:40:57.765Z,93.10
2018-02-03T17:43:27.362Z,92.80
2018-02-03T17:48:55.792Z,92.60
2018-02-03T17:51:35.340Z,92.80
2018-02-03T18:22:15.521Z,93.00
2018-02-03T18:28:16.428Z,93.30
2018-02-03T18:30:46.177Z,93.20
2018-02-03T18:33:15.218Z,93.50
2018-02-03T18:35:44.819Z,93.50
2018-02-03T18:38:13.866Z,93.60
2018-02-03T18:46:36.885Z,93.10
2018-02-03T20:24:57.498Z,93.70
2018-02-03T21:20:31.789Z,93.80
2018-02-03T21:23:03.482Z,93.70
2018-02-03T21:53:44.967Z,93.40
2018-02-03T21:56:14.012Z,93.40
2018-02-03T21:58:43.013Z,93.30
2018-02-03T22:01:13.870Z,93.50
2018-02-03T22:03:42.923Z,93.50
2018-02-03T22:06:14.526Z,93.70
2018-02-03T22:08:43.726Z,93.50
2018-02-03T22:11:12.703Z,93.40
2018-02-03T22:13:42.805Z,92.90
2018-02-03T22:16:11.800Z,93.00
2018-02-03T22:18:41.538Z,93.10
2018-02-03T22:21:11.447Z,93.30
2018-02-03T22:23:41.369Z,93.60
2018-02-03T22:26:11.939Z,93.60
2018-02-03T22:28:42.089Z,93.60
2018-02-03T22:31:11.986Z,93.50
2018-02-03T22:33:41.851Z,93.50
2018-02-03T22:38:52.955Z,93.50
